createdAt,value
2023-03-29T00:01:56.838Z,7.00
2023-03-29T00:04:27.850Z,7.13
2023-03-29T00:06:58.112Z,6.95
2023-03-29T00:09:32.125Z,7.95
2023-03-29T00:12:02.134Z,8.52
2023-03-29T00:14:32.900Z,8.32
2023-03-29T00:17:02.843Z,7.90
2023-03-29T00:19:35.766Z,8.23
2023-03-29T00:22:06.144Z,7.03
2023-03-29T00:24:38.713Z,7.88
2023-03-29T00:27:08.757Z,7.07
2023-03-29T00:29:38.747Z,8.43
2023-03-29T00:32:09.097Z,7.95
2023-03-29T00:34:39.082Z,8.35
2023-03-29T00:37:09.737Z,7.45
2023-03-29T00:39:42.909Z,7.28
2023-03-29T00:42:16.073Z,7.43
2023-03-29T00:45:02.896Z,6.57
2023-03-29T00:47:39.489Z,6.38
2023-03-29T00:50:16.562Z,5.90
2023-03-29T00:52:53.138Z,6.43
2023-03-29T00:55:30.635Z,5.70
2023-03-29T00:58:01.742Z,5.93
2023-03-29T01:00:36.527Z,4.78
2023-03-29T01:05:47.878Z,5.30
2023-03-29T01:08:22.614Z,5.20
2023-03-29T01:13:39.402Z,4.68
2023-03-29T01:16:13.446Z,4.60
2023-03-29T01:18:43.552Z,5.20
2023-03-29T01:21:25.704Z,5.80
2023-03-29T01:24:20.948Z,5.72
2023-03-29T01:27:03.409Z,5.32
2023-03-29T01:29:41.193Z,5.10
2023-03-29T01:32:16.497Z,4.70
2023-03-29T01:34:51.733Z,4.93
2023-03-29T01:37:26.680Z,4.85
2023-03-29T01:39:57.019Z,5.05
2023-03-29T01:42:44.393Z,4.93
2023-03-29T01:45:26.042Z,5.55
2023-03-29T01:48:01.942Z,5.53
2023-03-29T01:50:44.661Z,5.40
2023-03-29T01:53:20.656Z,6.00
2023-03-29T01:55:55.289Z,5.32
2023-03-29T01:58:29.513Z,5.63
2023-03-29T02:01:05.909Z,5.68
2023-03-29T02:03:42.520Z,5.60
2023-03-29T02:06:14.968Z,5.35
2023-03-29T02:08:45.690Z,5.15
2023-03-29T02:11:15.934Z,4.38
2023-03-29T02:13:46.188Z,4.80
2023-03-29T02:16:19.533Z,4.78
2023-03-29T02:18:52.985Z,4.55
2023-03-29T02:21:29.360Z,4.63
2023-03-29T02:24:03.467Z,4.72
2023-03-29T02:26:33.565Z,4.43
2023-03-29T02:29:03.727Z,4.72
2023-03-29T02:31:41.549Z,4.80
2023-03-29T02:34:19.340Z,4.90
2023-03-29T02:36:54.635Z,4.68
2023-03-29T02:39:25.618Z,4.28
2023-03-29T02:41:57.653Z,5.32
2023-03-29T02:44:31.346Z,4.40
2023-03-29T02:47:09.989Z,5.15
2023-03-29T02:49:39.994Z,5.40
2023-03-29T02:52:15.570Z,4.63
2023-03-29T02:54:48.710Z,5.43
2023-03-29T02:57:22.269Z,5.30
2023-03-29T02:59:52.341Z,5.28
2023-03-29T03:02:25.984Z,4.90
2023-03-29T03:04:56.001Z,5.07
2023-03-29T03:07:25.971Z,4.85
2023-03-29T03:09:55.954Z,5.10
2023-03-29T03:12:26.036Z,5.05
2023-03-29T03:14:55.996Z,4.75
2023-03-29T03:17:28.613Z,4.72
2023-03-29T03:19:59.166Z,4.90
2023-03-29T03:22:29.216Z,4.60
2023-03-29T03:24:59.131Z,4.13
2023-03-29T03:27:29.130Z,4.75
2023-03-29T03:29:59.071Z,4.20
2023-03-29T03:32:31.840Z,4.78
2023-03-29T03:35:01.812Z,4.60
2023-03-29T03:37:31.953Z,4.47
2023-03-29T03:40:05.765Z,3.97
2023-03-29T03:42:35.937Z,4.07
2023-03-29T03:45:06.160Z,4.38
2023-03-29T03:47:40.107Z,3.83
2023-03-29T03:50:12.211Z,3.53
2023-03-29T03:52:42.476Z,4.32
2023-03-29T03:55:12.679Z,3.85
2023-03-29T03:57:42.939Z,4.05
2023-03-29T04:00:20.525Z,3.85
2023-03-29T04:02:54.467Z,3.60
2023-03-29T04:05:24.659Z,4.00
2023-03-29T04:07:56.240Z,3.70
2023-03-29T04:10:26.223Z,4.03
2023-03-29T04:12:56.876Z,3.65
2023-03-29T04:15:27.157Z,4.13
2023-03-29T04:18:00.719Z,4.18
2023-03-29T04:20:31.272Z,3.70
2023-03-29T04:23:01.285Z,4.05
2023-03-29T04:25:31.246Z,4.28
2023-03-29T04:28:01.537Z,4.57
2023-03-29T04:30:31.587Z,3.97
2023-03-29T04:33:04.215Z,3.88
2023-03-29T04:35:34.292Z,3.70
2023-03-29T04:38:04.558Z,3.65
2023-03-29T04:40:34.595Z,4.10
2023-03-29T04:43:04.601Z,4.35
2023-03-29T04:45:34.697Z,4.45
2023-03-29T04:48:07.357Z,4.28
2023-03-29T04:50:37.703Z,4.50
2023-03-29T04:53:08.128Z,4.22
2023-03-29T04:55:38.101Z,3.92
2023-03-29T04:58:08.565Z,4.35
2023-03-29T05:00:38.684Z,4.10
2023-03-29T05:03:13.586Z,4.00
2023-03-29T05:05:44.160Z,4.28
2023-03-29T05:08:14.151Z,4.30
2023-03-29T05:10:46.474Z,4.28
2023-03-29T05:13:16.956Z,4.20
2023-03-29T05:15:47.732Z,4.35
2023-03-29T05:18:20.379Z,4.50
2023-03-29T05:20:50.399Z,4.18
2023-03-29T05:23:20.393Z,4.55
2023-03-29T05:25:51.133Z,4.80
2023-03-29T05:28:21.113Z,4.32
2023-03-29T05:31:02.049Z,4.57
2023-03-29T05:33:35.631Z,4.65
2023-03-29T05:36:08.670Z,4.45
2023-03-29T05:38:39.135Z,4.50
2023-03-29T05:41:11.015Z,4.40
2023-03-29T05:43:42.052Z,4.43
2023-03-29T05:46:13.005Z,4.13
2023-03-29T05:48:45.763Z,4.60
2023-03-29T05:51:16.189Z,4.32
2023-03-29T05:53:46.349Z,4.32
2023-03-29T05:56:16.823Z,4.30
2023-03-29T05:58:46.878Z,4.07
2023-03-29T06:01:18.069Z,4.03
2023-03-29T06:03:50.882Z,4.05
2023-03-29T06:06:21.497Z,4.80
2023-03-29T06:08:51.963Z,3.75
2023-03-29T06:11:22.476Z,4.57
2023-03-29T06:13:53.063Z,4.30
2023-03-29T06:16:23.230Z,4.43
2023-03-29T06:18:55.908Z,4.63
2023-03-29T06:21:26.808Z,4.82
2023-03-29T06:23:56.966Z,4.35
2023-03-29T06:26:27.892Z,4.35
2023-03-29T06:28:58.440Z,4.57
2023-03-29T06:31:28.652Z,5.03
2023-03-29T06:34:01.825Z,4.53
2023-03-29T06:36:32.839Z,4.65
2023-03-29T06:39:04.169Z,4.38
2023-03-29T06:41:34.290Z,4.43
2023-03-29T06:44:04.403Z,4.55
2023-03-29T06:46:34.587Z,4.25
2023-03-29T06:49:07.398Z,4.30
2023-03-29T06:51:37.696Z,4.85
2023-03-29T06:54:07.866Z,4.45
2023-03-29T06:56:38.020Z,4.55
2023-03-29T06:59:08.651Z,4.80
2023-03-29T07:01:38.798Z,4.18
2023-03-29T07:04:11.927Z,4.85
2023-03-29T07:06:48.470Z,4.15
2023-03-29T07:09:19.660Z,4.63
2023-03-29T07:11:50.569Z,4.50
2023-03-29T07:14:20.691Z,4.80
2023-03-29T07:16:52.085Z,4.07
2023-03-29T07:19:27.497Z,4.22
2023-03-29T07:21:58.872Z,5.78
2023-03-29T07:24:29.079Z,4.38
2023-03-29T07:27:04.268Z,4.80
2023-03-29T07:29:34.987Z,5.18
2023-03-29T07:32:05.062Z,4.78
2023-03-29T07:34:37.763Z,4.70
2023-03-29T07:37:07.831Z,4.78
2023-03-29T07:39:38.253Z,4.35
2023-03-29T07:42:08.448Z,4.13
2023-03-29T07:44:38.902Z,4.22
2023-03-29T07:47:09.530Z,4.40
2023-03-29T07:49:42.351Z,4.28
2023-03-29T07:52:13.061Z,4.65
2023-03-29T07:54:43.202Z,4.30
2023-03-29T07:57:13.373Z,4.03
2023-03-29T07:59:43.533Z,4.22
2023-03-29T08:02:14.606Z,4.05
2023-03-29T08:04:47.367Z,3.78
2023-03-29T08:07:19.395Z,3.92
2023-03-29T08:09:49.598Z,3.83
2023-03-29T08:12:19.747Z,3.85
2023-03-29T08:14:49.816Z,4.38
2023-03-29T08:17:19.963Z,4.10
2023-03-29T08:19:52.671Z,3.83
2023-03-29T08:22:22.812Z,4.03
2023-03-29T08:24:53.123Z,3.88
2023-03-29T08:27:23.296Z,3.88
2023-03-29T08:29:53.322Z,4.18
2023-03-29T08:32:23.578Z,4.20
2023-03-29T08:34:56.353Z,4.63
2023-03-29T08:37:26.636Z,3.75
2023-03-29T08:39:57.298Z,3.83
2023-03-29T08:42:51.348Z,4.03
2023-03-29T08:45:29.551Z,4.07
2023-03-29T08:48:07.802Z,3.45
2023-03-29T08:50:44.226Z,3.97
2023-03-29T08:53:20.867Z,4.22
2023-03-29T08:55:53.590Z,4.15
2023-03-29T08:58:29.194Z,3.58
2023-03-29T09:01:01.983Z,4.07
2023-03-29T09:03:37.948Z,3.58
2023-03-29T09:06:13.745Z,4.20
2023-03-29T09:08:47.686Z,4.15
2023-03-29T09:11:43.965Z,4.70
2023-03-29T09:14:35.401Z,4.00
2023-03-29T09:17:15.360Z,3.90
2023-03-29T09:19:52.313Z,3.92
2023-03-29T09:22:31.649Z,4.40
2023-03-29T09:25:16.897Z,3.97
2023-03-29T09:27:53.074Z,4.47
2023-03-29T09:30:29.077Z,4.00
2023-03-29T09:33:03.699Z,3.92
2023-03-29T09:35:38.803Z,4.15
2023-03-29T09:38:16.228Z,3.60
2023-03-29T09:40:52.571Z,3.85
2023-03-29T09:43:33.661Z,3.85
2023-03-29T09:46:08.620Z,3.97
2023-03-29T09:48:42.964Z,4.05
2023-03-29T09:51:16.681Z,3.35
2023-03-29T09:53:50.090Z,3.42
2023-03-29T09:56:20.655Z,3.40
2023-03-29T09:58:50.813Z,3.47
2023-03-29T10:01:21.600Z,3.58
2023-03-29T10:03:54.007Z,3.63
2023-03-29T10:06:27.161Z,3.20
2023-03-29T10:09:00.117Z,3.47
2023-03-29T10:11:34.421Z,3.20
2023-03-29T10:14:07.390Z,2.70
2023-03-29T10:16:44.905Z,3.58
2023-03-29T10:19:26.378Z,3.50
2023-03-29T10:21:58.284Z,3.40
2023-03-29T10:24:31.320Z,3.47
2023-03-29T10:27:04.973Z,3.25
2023-03-29T10:29:41.306Z,3.70
2023-03-29T10:32:20.354Z,3.90
2023-03-29T10:34:50.865Z,2.85
2023-03-29T10:37:23.600Z,3.40
2023-03-29T10:39:57.889Z,3.55
2023-03-29T10:42:29.062Z,3.20
2023-03-29T10:45:02.321Z,3.45
2023-03-29T10:47:36.559Z,3.08
2023-03-29T10:50:11.751Z,3.40
2023-03-29T10:52:43.576Z,2.63
2023-03-29T10:55:19.703Z,3.13
2023-03-29T10:58:02.257Z,2.10
2023-03-29T11:00:38.324Z,2.58
2023-03-29T11:03:43.597Z,2.70
2023-03-29T11:06:22.450Z,2.88
2023-03-29T11:08:57.875Z,5.13
2023-03-29T11:12:15.549Z,3.20
2023-03-29T11:15:02.407Z,2.47
2023-03-29T11:17:47.273Z,3.40
2023-03-29T11:20:28.161Z,3.35
2023-03-29T11:23:13.032Z,3.63
2023-03-29T11:25:53.985Z,3.10
2023-03-29T11:28:37.835Z,3.80
2023-03-29T11:31:21.447Z,3.60
2023-03-29T11:34:09.887Z,3.30
2023-03-29T11:36:50.685Z,3.40
2023-03-29T11:39:31.546Z,3.83
2023-03-29T11:42:11.398Z,4.03
2023-03-29T11:44:47.050Z,3.28
2023-03-29T11:47:21.819Z,3.40
2023-03-29T11:49:57.601Z,3.40
2023-03-29T11:52:32.677Z,3.38
2023-03-29T11:55:06.436Z,3.58
2023-03-29T11:57:41.972Z,3.87
2023-03-29T12:00:20.758Z,3.28
2023-03-29T12:02:55.740Z,3.90
2023-03-29T12:05:30.971Z,3.70
2023-03-29T12:08:06.550Z,3.83
2023-03-29T12:10:41.456Z,4.07
2023-03-29T12:13:21.767Z,3.88
2023-03-29T12:16:00.716Z,4.50
2023-03-29T12:18:36.001Z,3.67
2023-03-29T12:21:13.057Z,4.45
2023-03-29T12:23:46.606Z,3.00
2023-03-29T12:26:35.076Z,4.20
2023-03-29T12:29:29.777Z,4.47
2023-03-29T12:32:24.827Z,4.15
2023-03-29T12:35:14.215Z,5.45
2023-03-29T12:37:50.393Z,4.78
2023-03-29T12:40:23.039Z,5.40
2023-03-29T12:42:59.992Z,4.65
2023-03-29T12:45:36.817Z,4.65
2023-03-29T12:48:10.595Z,5.35
2023-03-29T12:50:54.293Z,5.07
2023-03-29T12:53:28.307Z,4.63
2023-03-29T12:56:12.731Z,4.93
2023-03-29T12:59:19.831Z,4.78
2023-03-29T13:02:04.450Z,5.00
2023-03-29T13:04:54.225Z,4.43
2023-03-29T13:07:35.901Z,5.38
2023-03-29T13:10:10.658Z,4.80
2023-03-29T13:12:46.054Z,4.78
2023-03-29T13:15:26.893Z,4.38
2023-03-29T13:18:06.415Z,4.60
2023-03-29T13:20:48.960Z,4.55
2023-03-29T13:23:36.984Z,4.68
2023-03-29T13:26:36.341Z,4.70
2023-03-29T13:29:30.222Z,4.07
2023-03-29T13:32:09.279Z,4.10
2023-03-29T13:34:48.507Z,3.55
2023-03-29T13:37:37.543Z,4.40
2023-03-29T13:40:34.627Z,4.35
2023-03-29T13:43:13.988Z,3.60
2023-03-29T13:45:43.996Z,4.65
2023-03-29T13:48:29.148Z,4.10
2023-03-29T13:51:01.243Z,4.43
2023-03-29T13:53:40.301Z,3.00
2023-03-29T13:56:20.236Z,4.43
2023-03-29T13:58:54.550Z,4.32
2023-03-29T14:01:31.428Z,3.40
2023-03-29T14:04:02.580Z,4.22
2023-03-29T14:06:36.778Z,4.32
2023-03-29T14:09:12.934Z,3.67
2023-03-29T14:11:47.782Z,4.50
2023-03-29T14:14:18.227Z,4.30
2023-03-29T14:16:48.381Z,5.10
2023-03-29T14:19:22.127Z,4.45
2023-03-29T14:21:53.687Z,4.77
2023-03-29T14:24:30.941Z,5.07
2023-03-29T14:27:00.935Z,4.85
2023-03-29T14:29:34.405Z,5.22
2023-03-29T14:32:13.527Z,4.85
2023-03-29T14:34:47.260Z,4.45
2023-03-29T14:37:24.661Z,5.15
2023-03-29T14:40:12.186Z,5.05
2023-03-29T14:42:44.002Z,5.20
2023-03-29T14:45:17.628Z,4.93
2023-03-29T14:47:48.806Z,5.07
2023-03-29T14:50:31.038Z,4.63
2023-03-29T14:53:03.339Z,4.57
2023-03-29T14:55:36.761Z,4.50
2023-03-29T14:58:08.964Z,4.53
2023-03-29T15:00:44.960Z,4.72
2023-03-29T15:03:19.535Z,4.63
2023-03-29T15:05:54.490Z,4.97
2023-03-29T15:08:35.821Z,4.65
2023-03-29T15:11:17.231Z,4.70
2023-03-29T15:13:48.840Z,4.30
2023-03-29T15:16:23.012Z,5.30
2023-03-29T15:18:55.218Z,5.60
2023-03-29T15:21:25.908Z,4.60
2023-03-29T15:23:59.788Z,8.57
2023-03-29T15:26:36.095Z,6.22
2023-03-29T15:29:12.664Z,5.55
2023-03-29T15:31:44.415Z,5.93
2023-03-29T15:34:16.632Z,5.65
2023-03-29T15:36:48.314Z,6.18
2023-03-29T15:39:20.597Z,5.93
2023-03-29T15:41:55.432Z,6.63
2023-03-29T15:44:30.425Z,5.93
2023-03-29T15:47:00.550Z,6.57
2023-03-29T15:49:30.850Z,6.53
2023-03-29T15:52:00.802Z,7.30
2023-03-29T15:54:31.804Z,6.25
2023-03-29T15:57:09.219Z,6.97
2023-03-29T15:59:39.392Z,6.22
2023-03-29T16:02:09.394Z,6.22
2023-03-29T16:04:39.455Z,6.63
2023-03-29T16:07:13.763Z,6.57
2023-03-29T16:09:43.914Z,6.90
2023-03-29T16:12:16.601Z,7.55
2023-03-29T16:14:47.550Z,6.03
2023-03-29T16:17:17.551Z,7.25
2023-03-29T16:19:47.498Z,9.35
2023-03-29T16:22:17.494Z,8.63
2023-03-29T16:24:47.493Z,6.82
2023-03-29T16:27:20.027Z,7.18
2023-03-29T16:29:50.035Z,7.28
2023-03-29T16:32:20.219Z,7.95
2023-03-29T16:34:50.249Z,8.82
2023-03-29T16:37:20.210Z,7.88
2023-03-29T16:39:50.386Z,6.53
2023-03-29T16:42:22.971Z,7.15
2023-03-29T16:44:52.970Z,7.43
2023-03-29T16:47:23.878Z,7.60
2023-03-29T16:49:53.851Z,6.85
2023-03-29T16:52:23.800Z,6.60
2023-03-29T16:54:53.773Z,8.27
2023-03-29T16:57:26.491Z,7.63
2023-03-29T16:59:56.981Z,6.45
2023-03-29T17:02:26.961Z,11.65
2023-03-29T17:04:57.622Z,7.55
2023-03-29T17:07:27.797Z,6.97
2023-03-29T17:09:58.333Z,6.38
2023-03-29T17:12:31.007Z,7.68
2023-03-29T17:15:01.086Z,7.07
2023-03-29T17:17:31.411Z,7.72
2023-03-29T17:20:01.369Z,6.18
2023-03-29T17:22:31.329Z,6.97
2023-03-29T17:25:03.669Z,7.50
2023-03-29T17:27:37.563Z,7.50
2023-03-29T17:30:09.426Z,7.53
2023-03-29T17:32:41.503Z,7.07
2023-03-29T17:35:13.425Z,6.93
2023-03-29T17:37:44.711Z,7.20
2023-03-29T17:40:17.314Z,6.93
2023-03-29T17:42:52.559Z,7.55
2023-03-29T17:45:23.054Z,7.00
2023-03-29T17:47:53.205Z,6.75
2023-03-29T17:50:23.450Z,7.13
2023-03-29T17:52:53.407Z,7.13
2023-03-29T17:55:23.436Z,6.93
2023-03-29T17:57:56.482Z,7.65
2023-03-29T18:00:26.773Z,7.10
2023-03-29T18:02:56.813Z,7.10
2023-03-29T18:05:26.865Z,7.32
2023-03-29T18:07:58.337Z,7.03
2023-03-29T18:10:28.313Z,7.00
2023-03-29T18:13:00.954Z,6.72
2023-03-29T18:15:30.941Z,7.63
2023-03-29T18:18:00.980Z,6.95
2023-03-29T18:20:31.555Z,7.10
2023-03-29T18:23:01.494Z,7.10
2023-03-29T18:25:31.466Z,7.25
2023-03-29T18:28:04.019Z,9.55
2023-03-29T18:30:34.067Z,7.55
2023-03-29T18:33:04.082Z,7.47
2023-03-29T18:35:34.635Z,6.47
2023-03-29T18:38:06.000Z,12.18
2023-03-29T18:40:35.957Z,10.48
2023-03-29T18:43:08.547Z,10.27
2023-03-29T18:45:38.592Z,8.23
2023-03-29T18:48:09.047Z,9.18
2023-03-29T18:50:39.791Z,7.38
2023-03-29T18:53:09.732Z,7.93
2023-03-29T18:55:39.793Z,6.90
2023-03-29T18:58:12.464Z,8.63
2023-03-29T19:00:43.502Z,6.97
2023-03-29T19:03:13.690Z,7.45
2023-03-29T19:05:43.925Z,7.40
2023-03-29T19:08:13.859Z,6.97
2023-03-29T19:10:43.916Z,6.60
2023-03-29T19:13:17.033Z,6.78
2023-03-29T19:15:47.646Z,7.15
2023-03-29T19:18:17.688Z,8.05
2023-03-29T19:20:51.154Z,8.73
2023-03-29T19:23:21.811Z,14.85
2023-03-29T19:25:56.062Z,19.00
2023-03-29T19:28:30.629Z,15.70
2023-03-29T19:31:03.524Z,15.23
2023-03-29T19:33:33.703Z,10.95
2023-03-29T19:36:03.914Z,9.23
2023-03-29T19:38:34.030Z,9.75
2023-03-29T19:41:03.988Z,9.27
2023-03-29T19:43:37.580Z,10.05
2023-03-29T19:46:13.572Z,7.43
2023-03-29T19:48:43.675Z,7.32
2023-03-29T19:51:13.653Z,6.60
2023-03-29T19:53:43.640Z,6.78
2023-03-29T19:56:14.660Z,7.13
2023-03-29T19:58:48.309Z,6.18
2023-03-29T20:01:21.229Z,6.65
2023-03-29T20:03:52.190Z,5.68
2023-03-29T20:06:23.836Z,6.70
2023-03-29T20:08:56.143Z,5.95
2023-03-29T20:11:26.654Z,6.13
2023-03-29T20:14:00.142Z,6.80
2023-03-29T20:16:34.439Z,7.53
2023-03-29T20:19:06.089Z,8.82
2023-03-29T20:21:37.393Z,11.48
2023-03-29T20:24:08.778Z,12.18
2023-03-29T20:26:38.798Z,10.38
2023-03-29T20:29:11.678Z,9.88
2023-03-29T20:31:41.728Z,7.60
2023-03-29T20:34:11.758Z,7.85
2023-03-29T20:36:41.897Z,10.00
2023-03-29T20:39:12.282Z,11.60
2023-03-29T20:41:42.243Z,9.98
2023-03-29T20:44:16.895Z,10.80
2023-03-29T20:47:03.320Z,10.20
2023-03-29T20:49:37.548Z,8.95
2023-03-29T20:52:10.921Z,9.18
2023-03-29T20:54:41.292Z,6.13
2023-03-29T20:57:14.776Z,6.18
2023-03-29T20:59:49.283Z,6.53
2023-03-29T21:05:00.444Z,8.00
2023-03-29T21:07:31.116Z,7.57
2023-03-29T21:10:01.284Z,7.50
2023-03-29T21:12:31.670Z,6.95
2023-03-29T21:15:04.251Z,7.85
2023-03-29T21:17:34.386Z,7.15
2023-03-29T21:20:10.077Z,7.38
2023-03-29T21:22:43.125Z,8.20
2023-03-29T21:25:16.277Z,7.55
2023-03-29T21:27:46.516Z,6.72
2023-03-29T21:30:19.571Z,6.80
2023-03-29T21:32:50.486Z,6.78
2023-03-29T21:35:24.193Z,6.60
2023-03-29T21:37:54.144Z,6.68
2023-03-29T21:40:24.104Z,7.22
2023-03-29T21:42:54.084Z,6.30
2023-03-29T21:45:26.634Z,5.78
2023-03-29T21:47:56.726Z,5.95
2023-03-29T21:50:26.830Z,6.00
2023-03-29T21:52:56.983Z,5.60
2023-03-29T21:55:26.983Z,6.28
2023-03-29T21:57:56.998Z,6.32
2023-03-29T22:00:29.865Z,5.80
2023-03-29T22:03:00.134Z,6.07
2023-03-29T22:05:30.260Z,6.10
2023-03-29T22:08:00.206Z,6.38
2023-03-29T22:10:33.126Z,6.45
2023-03-29T22:13:03.714Z,5.53
2023-03-29T22:15:36.735Z,6.03
2023-03-29T22:18:08.427Z,5.68
2023-03-29T22:20:38.539Z,5.80
2023-03-29T22:23:08.484Z,6.10
2023-03-29T22:25:40.104Z,6.18
2023-03-29T22:28:10.076Z,6.60
2023-03-29T22:30:42.841Z,5.78
2023-03-29T22:33:12.784Z,5.85
2023-03-29T22:35:42.753Z,5.88
2023-03-29T22:38:12.736Z,6.03
2023-03-29T22:40:43.188Z,7.32
2023-03-29T22:43:13.194Z,6.80
2023-03-29T22:45:45.856Z,6.55
2023-03-29T22:48:16.045Z,6.57
2023-03-29T22:50:49.070Z,6.03
2023-03-29T22:53:19.019Z,6.03
2023-03-29T22:55:48.974Z,5.90
2023-03-29T22:58:18.976Z,5.40
2023-03-29T23:00:52.629Z,6.35
2023-03-29T23:03:23.344Z,6.68
2023-03-29T23:05:55.116Z,6.18
2023-03-29T23:08:25.534Z,5.72
2023-03-29T23:10:55.802Z,6.07
2023-03-29T23:13:29.119Z,6.22
2023-03-29T23:16:04.980Z,6.43
2023-03-29T23:18:37.851Z,6.05
2023-03-29T23:21:09.217Z,6.60
2023-03-29T23:23:39.569Z,6.07
2023-03-29T23:26:11.342Z,6.00
2023-03-29T23:28:41.346Z,6.45
2023-03-29T23:31:18.576Z,6.57
2023-03-29T23:33:49.594Z,6.43
2023-03-29T23:36:21.692Z,6.22
2023-03-29T23:38:52.759Z,5.95
2023-03-29T23:41:23.116Z,6.03
2023-03-29T23:43:53.727Z,6.45
2023-03-29T23:46:26.547Z,6.90
2023-03-29T23:48:56.904Z,6.63
2023-03-29T23:51:28.525Z,6.95
2023-03-29T23:53:59.148Z,6.88
2023-03-29T23:56:29.758Z,6.65
2023-03-29T23:58:59.783Z,6.45
